Time;durP1;ratioP1;P1;durP2;ratioP2;P2;SDS_P1;SDS_P2;PMS_P1;PMS_P2;Temp;Humidity;BMP_temperature;BMP_pressure;BME280_temperature;BME280_humidity;BME280_pressure;Samples;Min_cycle;Max_cycle;Signal;HPM_P1;HPM_P2
2022/01/09 00:01:06;;;;;;;37.03;6.55;;;;;;;;;;5008697;28;20033;-67
2022/01/09 00:03:32;;;;;;;25.08;4.88;;;;;;;;;;4980342;28;20034;-67
2022/01/09 00:05:58;;;;;;;30.17;5.30;;;;;;;;;;5009447;28;20054;-67
2022/01/09 00:08:24;;;;;;;35.40;5.97;;;;;;;;;;5009572;28;20033;-67
2022/01/09 00:10:51;;;;;;;44.50;6.95;;;;;;;;;;5009302;28;20101;-67
2022/01/09 00:13:17;;;;;;;50.95;7.70;;;;;;;;;;5009534;28;20044;-67
2022/01/09 00:15:44;;;;;;;52.95;7.35;;;;;;;;;;5009038;28;20558;-67
2022/01/09 00:18:10;;;;;;;62.45;8.10;;;;;;;;;;5009141;28;20042;-67
2022/01/09 00:20:36;;;;;;;80.22;9.80;;;;;;;;;;4987046;28;20506;-67
2022/01/09 00:23:02;;;;;;;79.10;11.05;;;;;;;;;;5009315;28;20041;-68
2022/01/09 00:25:28;;;;;;;68.28;9.55;;;;;;;;;;5006529;28;20030;-67
2022/01/09 00:27:55;;;;;;;66.05;7.97;;;;;;;;;;5008880;28;20030;-67
2022/01/09 00:30:22;;;;;;;52.13;8.73;;;;;;;;;;5009072;28;20037;-68
2022/01/09 00:32:49;;;;;;;86.13;11.35;;;;;;;;;;5009221;28;20164;-68
2022/01/09 00:35:15;;;;;;;59.75;9.82;;;;;;;;;;5007868;28;20531;-71
2022/01/09 00:37:41;;;;;;;71.30;9.85;;;;;;;;;;5008600;28;20120;-68
2022/01/09 00:40:08;;;;;;;68.07;9.10;;;;;;;;;;5007911;28;20104;-68
2022/01/09 00:42:34;;;;;;;67.50;8.15;;;;;;;;;;5008377;28;20022;-68
2022/01/09 00:45:01;;;;;;;63.83;8.30;;;;;;;;;;5008771;28;20507;-68
2022/01/09 00:47:26;;;;;;;61.03;9.18;;;;;;;;;;5007454;28;20099;-68
2022/01/09 00:49:52;;;;;;;68.32;8.52;;;;;;;;;;5008810;28;20467;-68
2022/01/09 00:52:18;;;;;;;73.55;9.13;;;;;;;;;;5005784;28;20061;-68
2022/01/09 00:54:45;;;;;;;54.15;7.35;;;;;;;;;;5008731;28;20491;-68
2022/01/09 00:57:11;;;;;;;59.83;7.20;;;;;;;;;;5007449;28;20069;-67
2022/01/09 00:59:37;;;;;;;52.22;7.75;;;;;;;;;;5008504;28;20424;-69
2022/01/09 01:02:03;;;;;;;63.22;9.93;;;;;;;;;;5007507;28;20099;-68
2022/01/09 01:04:29;;;;;;;56.75;7.13;;;;;;;;;;5006654;28;20491;-67
2022/01/09 01:06:55;;;;;;;47.40;7.18;;;;;;;;;;4988140;28;20041;-67
2022/01/09 01:09:23;;;;;;;58.20;8.00;;;;;;;;;;4991130;28;20030;-67
2022/01/09 01:11:49;;;;;;;54.40;6.82;;;;;;;;;;5008422;28;20045;-68
2022/01/09 01:14:15;;;;;;;50.17;7.45;;;;;;;;;;5008059;28;20030;-68
2022/01/09 01:16:41;;;;;;;64.40;7.85;;;;;;;;;;5007633;28;20120;-68
2022/01/09 01:19:10;;;;;;;59.30;8.85;;;;;;;;;;5008040;28;20057;-67
2022/01/09 01:21:37;;;;;;;65.22;8.25;;;;;;;;;;5008357;28;20103;-67
2022/01/09 01:24:03;;;;;;;46.47;6.20;;;;;;;;;;5011911;28;20030;-66
2022/01/09 01:26:29;;;;;;;55.28;7.25;;;;;;;;;;5011514;28;20107;-66
2022/01/09 01:28:55;;;;;;;53.22;7.05;;;;;;;;;;5012319;28;20057;-67
2022/01/09 01:31:21;;;;;;;49.65;7.07;;;;;;;;;;5012320;28;20053;-67
2022/01/09 01:33:47;;;;;;;52.78;7.13;;;;;;;;;;5010465;28;20535;-68
2022/01/09 01:36:13;;;;;;;49.72;6.95;;;;;;;;;;5009349;28;20113;-68
2022/01/09 01:38:39;;;;;;;48.95;7.03;;;;;;;;;;5011904;28;20157;-67
2022/01/09 01:41:05;;;;;;;52.58;6.78;;;;;;;;;;4992963;28;20047;-68
2022/01/09 01:43:31;;;;;;;57.33;5.95;;;;;;;;;;5011447;28;20088;-67
2022/01/09 01:46:01;;;;;;;46.63;6.47;;;;;;;;;;5012102;28;20038;-67
2022/01/09 01:48:27;;;;;;;44.58;5.78;;;;;;;;;;5011916;28;20526;-67
2022/01/09 01:50:53;;;;;;;48.83;6.25;;;;;;;;;;5011302;28;20042;-67
2022/01/09 01:53:20;;;;;;;48.95;5.95;;;;;;;;;;5011161;28;20126;-67
2022/01/09 01:55:52;;;;;;;53.88;7.07;;;;;;;;;;5011563;28;20029;-68
2022/01/09 01:58:19;;;;;;;48.55;8.05;;;;;;;;;;5011155;28;20022;-67
2022/01/09 02:00:45;;;;;;;46.35;7.72;;;;;;;;;;5011572;28;20022;-67
2022/01/09 02:03:11;;;;;;;38.72;5.70;;;;;;;;;;5011918;28;20033;-67
2022/01/09 02:05:37;;;;;;;55.28;6.63;;;;;;;;;;5009674;28;20399;-67
2022/01/09 02:08:04;;;;;;;46.08;5.32;;;;;;;;;;5011499;28;20034;-66
2022/01/09 02:10:48;;;;;;;37.03;5.63;;;;;;;;;;4989070;28;20079;-67
2022/01/09 02:13:17;;;;;;;39.47;5.35;;;;;;;;;;5011745;28;20116;-67
2022/01/09 02:15:46;;;;;;;43.38;6.68;;;;;;;;;;5010164;28;20400;-67
2022/01/09 02:18:21;;;;;;;45.53;7.20;;;;;;;;;;5010925;28;20038;-66
2022/01/09 02:20:49;;;;;;;40.80;6.45;;;;;;;;;;5010925;28;20025;-69
2022/01/09 02:23:17;;;;;;;51.45;7.80;;;;;;;;;;5008746;28;20022;-68
2022/01/09 02:25:43;;;;;;;50.63;8.30;;;;;;;;;;5011410;28;20038;-66
2022/01/09 02:28:10;;;;;;;50.47;7.28;;;;;;;;;;5011788;28;20117;-67
2022/01/09 02:30:37;;;;;;;41.83;5.68;;;;;;;;;;5010980;28;20038;-66
2022/01/09 02:33:04;;;;;;;50.30;6.80;;;;;;;;;;5011427;28;20455;-66
2022/01/09 02:35:31;;;;;;;47.55;6.32;;;;;;;;;;4988529;28;20030;-66
2022/01/09 02:37:57;;;;;;;39.72;5.75;;;;;;;;;;5009950;28;20109;-66
2022/01/09 02:40:24;;;;;;;36.75;6.05;;;;;;;;;;5010836;28;20041;-67
2022/01/09 02:42:53;;;;;;;40.42;6.68;;;;;;;;;;5011188;28;20065;-67
2022/01/09 02:45:22;;;;;;;41.60;5.78;;;;;;;;;;5009645;28;20123;-68
2022/01/09 02:47:49;;;;;;;45.15;6.22;;;;;;;;;;5009506;28;20494;-66
2022/01/09 02:50:40;;;;;;;46.60;7.68;;;;;;;;;;5011175;28;20034;-66
2022/01/09 02:53:12;;;;;;;31.42;6.18;;;;;;;;;;5008897;28;20049;-67
2022/01/09 02:55:39;;;;;;;42.45;5.80;;;;;;;;;;5008932;28;20125;-67
2022/01/09 02:58:05;;;;;;;37.85;5.30;;;;;;;;;;5009612;28;20464;-67
2022/01/09 03:00:32;;;;;;;44.95;5.63;;;;;;;;;;5010054;28;20492;-66
2022/01/09 03:02:58;;;;;;;34.42;5.03;;;;;;;;;;5009046;28;20115;-67
2022/01/09 03:05:25;;;;;;;38.03;4.75;;;;;;;;;;5010560;28;20033;-67
2022/01/09 03:07:51;;;;;;;51.70;6.00;;;;;;;;;;4987783;28;20037;-66
2022/01/09 03:10:18;;;;;;;35.28;4.55;;;;;;;;;;5009323;28;20034;-66
2022/01/09 03:12:45;;;;;;;25.13;4.63;;;;;;;;;;5010642;28;20036;-66
2022/01/09 03:15:11;;;;;;;38.95;6.45;;;;;;;;;;5009478;28;20025;-65
2022/01/09 03:17:38;;;;;;;31.38;4.63;;;;;;;;;;5009515;28;20037;-65
2022/01/09 03:20:05;;;;;;;36.97;4.68;;;;;;;;;;5010014;28;20028;-66
2022/01/09 03:22:31;;;;;;;32.90;4.65;;;;;;;;;;5008301;28;20033;-65
2022/01/09 03:24:57;;;;;;;33.00;5.38;;;;;;;;;;5009626;28;20076;-66
2022/01/09 03:27:23;;;;;;;34.38;4.45;;;;;;;;;;5009070;28;20037;-66
2022/01/09 03:29:49;;;;;;;32.20;6.13;;;;;;;;;;5009708;28;20030;-66
2022/01/09 03:32:15;;;;;;;40.90;6.40;;;;;;;;;;4977987;28;20440;-66
2022/01/09 03:34:41;;;;;;;27.10;4.50;;;;;;;;;;5010468;28;20034;-66
2022/01/09 03:37:07;;;;;;;31.17;4.03;;;;;;;;;;5009815;28;20530;-66
2022/01/09 03:39:34;;;;;;;28.13;5.82;;;;;;;;;;5009183;28;20108;-67
2022/01/09 03:42:00;;;;;;;39.80;5.32;;;;;;;;;;5009498;28;20484;-67
2022/01/09 03:44:26;;;;;;;30.35;4.43;;;;;;;;;;5009491;28;20030;-66
2022/01/09 03:46:53;;;;;;;36.53;5.93;;;;;;;;;;5009592;28;20025;-66
2022/01/09 03:49:19;;;;;;;35.22;5.05;;;;;;;;;;5010459;28;20018;-67
2022/01/09 03:51:47;;;;;;;33.05;5.45;;;;;;;;;;5010116;28;20411;-66
2022/01/09 03:54:13;;;;;;;35.67;5.22;;;;;;;;;;5008982;28;20049;-66
2022/01/09 03:56:39;;;;;;;30.42;4.75;;;;;;;;;;5009621;28;20109;-66
2022/01/09 03:59:05;;;;;;;31.02;5.05;;;;;;;;;;5009343;28;20250;-66
2022/01/09 04:01:31;;;;;;;35.58;4.93;;;;;;;;;;5009447;28;20566;-66
2022/01/09 04:03:57;;;;;;;34.40;5.03;;;;;;;;;;5008872;28;20026;-66
2022/01/09 04:06:24;;;;;;;26.73;4.45;;;;;;;;;;5008633;28;20513;-65
2022/01/09 04:08:52;;;;;;;30.15;4.38;;;;;;;;;;5009787;28;20033;-66
2022/01/09 04:11:23;;;;;;;25.35;4.00;;;;;;;;;;5008670;28;20466;-66
2022/01/09 04:13:49;;;;;;;27.33;4.60;;;;;;;;;;5007456;28;20018;-67
2022/01/09 04:16:15;;;;;;;31.75;4.22;;;;;;;;;;5009354;28;20040;-67
2022/01/09 04:18:41;;;;;;;27.42;4.78;;;;;;;;;;5008414;28;20029;-67
2022/01/09 04:21:07;;;;;;;30.88;6.25;;;;;;;;;;5008791;28;20037;-67
2022/01/09 04:23:33;;;;;;;30.77;5.15;;;;;;;;;;5010007;28;20331;-67
2022/01/09 04:26:00;;;;;;;25.33;4.20;;;;;;;;;;5009014;28;20256;-68
2022/01/09 04:28:26;;;;;;;23.65;4.32;;;;;;;;;;5009161;28;20038;-67
2022/01/09 04:30:52;;;;;;;29.27;5.65;;;;;;;;;;4988689;28;20432;-67
2022/01/09 04:33:18;;;;;;;25.73;4.63;;;;;;;;;;5008852;28;20084;-66
2022/01/09 04:35:44;;;;;;;29.75;3.83;;;;;;;;;;5006909;28;20096;-67
2022/01/09 04:38:11;;;;;;;44.05;4.70;;;;;;;;;;4977657;28;20121;-66
2022/01/09 04:40:37;;;;;;;23.65;3.88;;;;;;;;;;5008871;28;20403;-67
2022/01/09 04:43:06;;;;;;;27.10;5.38;;;;;;;;;;5008480;28;20207;-68
2022/01/09 04:45:32;;;;;;;34.88;6.50;;;;;;;;;;5008621;28;20022;-68
2022/01/09 04:48:02;;;;;;;33.05;5.38;;;;;;;;;;5007896;28;20032;-65
2022/01/09 04:50:31;;;;;;;27.88;4.40;;;;;;;;;;5008786;28;20038;-66
2022/01/09 04:53:00;;;;;;;28.30;4.70;;;;;;;;;;5007207;28;20053;-67
2022/01/09 04:55:49;;;;;;;31.60;4.32;;;;;;;;;;5008109;28;20025;-67
2022/01/09 04:58:15;;;;;;;27.23;5.10;;;;;;;;;;5008258;28;20030;-69
2022/01/09 05:00:41;;;;;;;28.75;4.18;;;;;;;;;;5007453;28;20061;-66
2022/01/09 05:03:08;;;;;;;25.02;4.55;;;;;;;;;;5007766;28;20565;-66
2022/01/09 05:05:34;;;;;;;27.15;4.38;;;;;;;;;;5008980;28;20038;-66
2022/01/09 05:08:00;;;;;;;27.13;4.97;;;;;;;;;;5009240;28;20033;-66
2022/01/09 05:10:47;;;;;;;32.20;5.28;;;;;;;;;;5008933;28;20449;-67
2022/01/09 05:13:13;;;;;;;28.60;4.38;;;;;;;;;;5007975;28;20048;-66
2022/01/09 05:15:39;;;;;;;26.00;3.85;;;;;;;;;;5006797;28;20513;-66
2022/01/09 05:18:14;;;;;;;36.20;3.72;;;;;;;;;;5008619;28;20145;-67
2022/01/09 05:20:40;;;;;;;23.05;4.72;;;;;;;;;;5009398;28;20360;-67
2022/01/09 05:23:06;;;;;;;28.13;3.88;;;;;;;;;;5009397;28;20034;-67
2022/01/09 05:25:32;;;;;;;31.35;3.97;;;;;;;;;;5007311;28;20564;-67
2022/01/09 05:27:59;;;;;;;21.15;3.83;;;;;;;;;;5006223;28;20033;-68
2022/01/09 05:30:25;;;;;;;22.85;3.72;;;;;;;;;;4990579;28;20030;-67
2022/01/09 05:32:51;;;;;;;27.65;3.65;;;;;;;;;;5008731;28;20026;-67
2022/01/09 05:35:17;;;;;;;24.45;3.67;;;;;;;;;;5007794;28;20022;-66
2022/01/09 05:37:43;;;;;;;25.33;6.43;;;;;;;;;;5008371;28;20166;-66
2022/01/09 05:40:10;;;;;;;27.75;5.28;;;;;;;;;;5007472;28;20571;-66
2022/01/09 05:42:36;;;;;;;36.35;4.68;;;;;;;;;;5005623;28;20392;-66
2022/01/09 05:45:04;;;;;;;29.10;4.50;;;;;;;;;;5008774;28;20030;-68
2022/01/09 05:47:30;;;;;;;25.35;3.58;;;;;;;;;;5008470;28;20038;-66
2022/01/09 05:49:56;;;;;;;26.45;4.50;;;;;;;;;;4990782;28;20039;-67
2022/01/09 05:52:22;;;;;;;28.38;4.30;;;;;;;;;;5007790;28;20050;-67
2022/01/09 05:54:48;;;;;;;19.90;5.30;;;;;;;;;;5006881;28;20029;-66
2022/01/09 05:57:14;;;;;;;27.00;4.25;;;;;;;;;;5007428;28;20113;-66
2022/01/09 05:59:40;;;;;;;19.63;3.20;;;;;;;;;;5008270;28;20051;-66
2022/01/09 06:02:06;;;;;;;25.95;4.88;;;;;;;;;;5007136;28;20029;-66
2022/01/09 06:04:32;;;;;;;20.88;4.47;;;;;;;;;;5007871;28;20034;-66
2022/01/09 06:06:58;;;;;;;27.50;4.75;;;;;;;;;;5006701;28;20479;-66
2022/01/09 06:09:24;;;;;;;27.58;4.55;;;;;;;;;;5011107;28;20044;-66
2022/01/09 06:11:51;;;;;;;28.80;3.95;;;;;;;;;;5011373;28;20026;-66
2022/01/09 06:14:17;;;;;;;23.35;3.67;;;;;;;;;;5010919;28;20049;-66
2022/01/09 06:16:43;;;;;;;20.42;3.53;;;;;;;;;;5011435;28;20108;-66
2022/01/09 06:19:10;;;;;;;19.23;3.53;;;;;;;;;;5011631;28;20099;-67
2022/01/09 06:21:36;;;;;;;33.05;6.00;;;;;;;;;;5011511;28;20034;-66
2022/01/09 06:24:02;;;;;;;16.30;3.42;;;;;;;;;;5011652;28;20061;-66
2022/01/09 06:26:28;;;;;;;30.33;3.97;;;;;;;;;;5011604;28;20030;-67
2022/01/09 06:28:54;;;;;;;21.20;4.20;;;;;;;;;;5011877;28;20462;-65
2022/01/09 06:31:20;;;;;;;17.77;4.13;;;;;;;;;;5011366;28;20030;-66
2022/01/09 06:33:46;;;;;;;21.05;4.05;;;;;;;;;;5011797;28;20531;-66
2022/01/09 06:36:12;;;;;;;21.58;3.88;;;;;;;;;;5011058;28;20038;-66
2022/01/09 06:38:38;;;;;;;20.20;3.30;;;;;;;;;;4987347;28;20855;-67
2022/01/09 06:41:04;;;;;;;25.13;4.15;;;;;;;;;;5011285;28;20038;-68
2022/01/09 06:43:30;;;;;;;21.77;3.72;;;;;;;;;;5011470;28;20026;-68
2022/01/09 06:45:56;;;;;;;17.52;3.10;;;;;;;;;;5011267;28;20030;-67
2022/01/09 06:48:22;;;;;;;16.05;2.78;;;;;;;;;;5011266;28;20115;-67
2022/01/09 06:50:48;;;;;;;24.33;3.97;;;;;;;;;;5011078;28;20148;-67
2022/01/09 06:53:14;;;;;;;19.33;3.15;;;;;;;;;;5011465;28;20060;-68
2022/01/09 06:55:40;;;;;;;19.75;3.10;;;;;;;;;;5011036;28;20034;-68
2022/01/09 06:58:06;;;;;;;16.30;3.28;;;;;;;;;;5010575;28;20077;-67
2022/01/09 07:00:33;;;;;;;20.05;3.38;;;;;;;;;;5010292;28;20049;-67
2022/01/09 07:02:59;;;;;;;15.57;2.80;;;;;;;;;;5011174;28;20037;-67
2022/01/09 07:05:25;;;;;;;15.60;2.83;;;;;;;;;;5008392;28;20062;-67
2022/01/09 07:07:51;;;;;;;17.42;3.10;;;;;;;;;;5010638;28;20123;-67
2022/01/09 07:10:17;;;;;;;15.10;2.78;;;;;;;;;;5011249;28;20034;-67
2022/01/09 07:12:43;;;;;;;16.58;4.40;;;;;;;;;;5009684;28;20042;-67
2022/01/09 07:15:09;;;;;;;16.30;2.60;;;;;;;;;;5010122;28;20495;-67
2022/01/09 07:17:36;;;;;;;19.52;2.58;;;;;;;;;;5009552;28;20042;-67
2022/01/09 07:20:02;;;;;;;14.57;3.13;;;;;;;;;;5006956;28;21125;-67
2022/01/09 07:22:28;;;;;;;19.40;3.20;;;;;;;;;;5009678;28;20030;-67
2022/01/09 07:24:54;;;;;;;23.20;3.17;;;;;;;;;;5010002;28;20475;-67
2022/01/09 07:27:20;;;;;;;14.18;2.67;;;;;;;;;;5010580;28;20108;-67
2022/01/09 07:29:46;;;;;;;17.10;2.95;;;;;;;;;;5010095;28;20483;-67
2022/01/09 07:32:12;;;;;;;30.98;4.00;;;;;;;;;;5010340;28;20036;-66
2022/01/09 07:34:38;;;;;;;26.73;3.90;;;;;;;;;;5009429;28;20026;-67
2022/01/09 07:37:04;;;;;;;14.75;2.60;;;;;;;;;;5009261;28;20030;-67
2022/01/09 07:39:30;;;;;;;11.70;2.50;;;;;;;;;;5007695;28;20061;-67
2022/01/09 07:41:57;;;;;;;14.52;2.40;;;;;;;;;;5010481;28;20046;-67
2022/01/09 07:44:24;;;;;;;20.15;3.38;;;;;;;;;;5010237;28;20053;-67
2022/01/09 07:46:50;;;;;;;12.25;2.40;;;;;;;;;;5009890;28;20061;-66
2022/01/09 07:49:16;;;;;;;16.55;2.60;;;;;;;;;;5004326;28;20058;-68
2022/01/09 07:51:42;;;;;;;13.93;2.55;;;;;;;;;;5008492;28;20030;-68
2022/01/09 07:54:08;;;;;;;18.27;4.00;;;;;;;;;;5007915;28;20042;-66
2022/01/09 07:56:34;;;;;;;22.67;4.20;;;;;;;;;;4992769;28;20038;-67
2022/01/09 07:59:00;;;;;;;23.85;4.85;;;;;;;;;;5009527;28;20049;-67
2022/01/09 08:01:26;;;;;;;18.95;3.45;;;;;;;;;;4986568;28;20412;-68
2022/01/09 08:03:52;;;;;;;18.77;3.10;;;;;;;;;;5009798;28;20112;-67
2022/01/09 08:06:18;;;;;;;20.75;3.50;;;;;;;;;;5009680;28;20061;-68
2022/01/09 08:08:44;;;;;;;22.88;3.65;;;;;;;;;;5009094;28;20022;-67
2022/01/09 08:11:10;;;;;;;21.70;3.58;;;;;;;;;;5006547;28;20029;-68
2022/01/09 08:13:36;;;;;;;28.77;3.42;;;;;;;;;;5008950;28;20406;-67
2022/01/09 08:16:02;;;;;;;15.60;2.85;;;;;;;;;;5009947;28;20034;-67
2022/01/09 08:18:28;;;;;;;20.40;2.63;;;;;;;;;;5009360;28;20049;-67
2022/01/09 08:20:54;;;;;;;24.67;4.10;;;;;;;;;;5009543;28;20030;-67
2022/01/09 08:23:20;;;;;;;22.20;3.58;;;;;;;;;;5004916;28;20104;-67
2022/01/09 08:25:46;;;;;;;16.13;3.42;;;;;;;;;;5008691;28;20484;-68
2022/01/09 08:28:12;;;;;;;25.02;3.90;;;;;;;;;;5009230;28;20038;-68
2022/01/09 08:30:38;;;;;;;19.83;3.45;;;;;;;;;;5008269;28;20084;-69
2022/01/09 08:33:04;;;;;;;20.27;4.90;;;;;;;;;;5009098;28;20105;-68
2022/01/09 08:35:30;;;;;;;17.13;3.10;;;;;;;;;;5009221;28;20509;-68
2022/01/09 08:37:56;;;;;;;19.08;3.45;;;;;;;;;;5009145;28;20029;-69
2022/01/09 08:40:23;;;;;;;12.68;2.65;;;;;;;;;;5009862;28;20034;-69
2022/01/09 08:42:50;;;;;;;12.70;2.80;;;;;;;;;;5010322;28;20026;-70
2022/01/09 08:45:16;;;;;;;21.30;4.22;;;;;;;;;;5009200;28;20026;-70
2022/01/09 08:47:43;;;;;;;29.10;4.75;;;;;;;;;;5009303;28;20036;-69
2022/01/09 08:50:10;;;;;;;21.60;3.55;;;;;;;;;;5009394;28;20049;-69
2022/01/09 08:52:36;;;;;;;22.85;3.95;;;;;;;;;;5009664;28;20061;-69
2022/01/09 08:55:04;;;;;;;24.40;3.75;;;;;;;;;;5009741;28;20106;-70
2022/01/09 08:57:30;;;;;;;16.88;4.03;;;;;;;;;;5008196;28;20466;-68
2022/01/09 08:59:56;;;;;;;25.17;4.78;;;;;;;;;;5007530;28;20037;-68
2022/01/09 09:02:22;;;;;;;28.73;4.55;;;;;;;;;;5009787;28;20042;-69
2022/01/09 09:04:48;;;;;;;26.83;3.95;;;;;;;;;;5010329;28;20025;-67
2022/01/09 09:07:18;;;;;;;18.25;5.18;;;;;;;;;;5009247;28;20467;-69
2022/01/09 09:09:44;;;;;;;28.45;4.28;;;;;;;;;;5006608;28;20049;-70
2022/01/09 09:12:10;;;;;;;21.08;3.60;;;;;;;;;;5008707;28;20057;-68
2022/01/09 09:14:37;;;;;;;20.60;3.30;;;;;;;;;;5008090;28;20155;-68
2022/01/09 09:17:03;;;;;;;24.85;4.93;;;;;;;;;;5010037;28;20018;-69
2022/01/09 09:19:29;;;;;;;21.95;4.35;;;;;;;;;;5009535;28;20030;-68
2022/01/09 09:21:55;;;;;;;27.90;4.82;;;;;;;;;;5009687;28;20088;-68
2022/01/09 09:24:21;;;;;;;26.35;4.75;;;;;;;;;;5009518;28;20428;-69
2022/01/09 09:26:47;;;;;;;26.02;3.88;;;;;;;;;;5010263;28;20292;-68
2022/01/09 09:29:13;;;;;;;22.25;4.10;;;;;;;;;;4999344;28;20050;-68
2022/01/09 09:31:39;;;;;;;20.35;4.35;;;;;;;;;;5009757;28;20125;-68
2022/01/09 09:34:08;;;;;;;22.25;3.63;;;;;;;;;;5009877;28;20072;-68
2022/01/09 09:36:34;;;;;;;22.00;3.65;;;;;;;;;;5009367;28;20025;-68
2022/01/09 09:39:00;;;;;;;21.92;4.38;;;;;;;;;;5009278;28;20057;-68
2022/01/09 09:41:26;;;;;;;25.85;4.15;;;;;;;;;;5009251;28;20763;-69
2022/01/09 09:43:53;;;;;;;18.45;3.53;;;;;;;;;;4994145;28;20026;-68
2022/01/09 09:46:23;;;;;;;18.50;3.42;;;;;;;;;;5012897;28;20501;-68
2022/01/09 09:48:49;;;;;;;18.35;3.60;;;;;;;;;;5012571;28;20493;-68
2022/01/09 09:51:15;;;;;;;21.52;3.90;;;;;;;;;;5012272;28;20108;-68
2022/01/09 09:53:42;;;;;;;23.08;4.85;;;;;;;;;;5013036;28;20357;-71
2022/01/09 09:56:08;;;;;;;19.73;3.55;;;;;;;;;;5012928;28;20041;-69
2022/01/09 09:58:34;;;;;;;23.40;4.97;;;;;;;;;;5012850;28;20049;-69
2022/01/09 10:01:00;;;;;;;18.90;3.38;;;;;;;;;;5013019;28;20030;-69
2022/01/09 10:03:30;;;;;;;21.20;3.17;;;;;;;;;;5013792;28;20030;-69
2022/01/09 10:05:56;;;;;;;19.00;3.45;;;;;;;;;;5012419;28;20538;-69
2022/01/09 10:08:34;;;;;;;22.30;3.22;;;;;;;;;;4995306;28;20079;-69
2022/01/09 10:11:00;;;;;;;22.33;3.42;;;;;;;;;;5012760;28;20064;-68
2022/01/09 10:13:26;;;;;;;17.58;2.90;;;;;;;;;;5012670;28;20058;-68
2022/01/09 10:16:01;;;;;;;30.40;6.00;;;;;;;;;;4981969;28;20554;-68
2022/01/09 10:18:44;;;;;;;16.73;3.13;;;;;;;;;;5012960;28;20030;-71
2022/01/09 10:21:10;;;;;;;20.52;3.35;;;;;;;;;;5011305;28;20084;-68
2022/01/09 10:23:55;;;;;;;15.65;3.08;;;;;;;;;;5010506;28;20030;-69
2022/01/09 10:26:21;;;;;;;18.67;3.95;;;;;;;;;;5011101;28;20030;-67
2022/01/09 10:28:47;;;;;;;17.33;3.00;;;;;;;;;;5012782;28;20037;-68
2022/01/09 10:31:15;;;;;;;17.83;2.95;;;;;;;;;;5013120;28;20030;-68
2022/01/09 10:33:41;;;;;;;22.73;4.45;;;;;;;;;;5012874;28;20037;-67
2022/01/09 10:36:09;;;;;;;17.63;3.08;;;;;;;;;;5012894;28;20036;-67
2022/01/09 10:38:35;;;;;;;24.02;3.88;;;;;;;;;;5011769;28;20041;-68
2022/01/09 10:41:03;;;;;;;18.00;3.17;;;;;;;;;;4994739;28;20037;-68
2022/01/09 10:43:41;;;;;;;24.42;4.63;;;;;;;;;;5012764;28;20074;-70
2022/01/09 10:46:09;;;;;;;18.98;3.72;;;;;;;;;;5012836;28;20065;-67
2022/01/09 10:48:36;;;;;;;19.65;4.68;;;;;;;;;;5012929;28;20033;-68
2022/01/09 10:51:05;;;;;;;19.35;3.38;;;;;;;;;;5012809;28;20112;-68
2022/01/09 10:53:35;;;;;;;17.42;3.35;;;;;;;;;;4994715;28;20050;-69
2022/01/09 10:56:03;;;;;;;23.48;3.55;;;;;;;;;;5013405;28;20042;-67
2022/01/09 10:58:30;;;;;;;19.85;3.60;;;;;;;;;;5012165;28;20030;-68
2022/01/09 11:01:11;;;;;;;18.23;2.90;;;;;;;;;;5012615;28;20479;-68
2022/01/09 11:03:37;;;;;;;;;;;;;;;;;;5013318;28;20068;-67
2022/01/09 11:06:03;;;;;;;11.23;2.35;;;;;;;;;;5012291;28;19949;-67
2022/01/09 11:08:30;;;;;;;16.98;2.95;;;;;;;;;;5012074;28;20579;-68
2022/01/09 11:10:57;;;;;;;14.55;2.25;;;;;;;;;;5012382;28;20446;-68
2022/01/09 11:13:25;;;;;;;13.45;2.30;;;;;;;;;;5012561;28;20033;-67
2022/01/09 11:18:38;;;;;;;17.67;3.95;;;;;;;;;;5011992;28;20169;-68
2022/01/09 11:21:04;;;;;;;16.23;2.42;;;;;;;;;;5012282;28;20018;-68
2022/01/09 11:23:50;;;;;;;16.20;2.28;;;;;;;;;;5012930;28;20469;-68
2022/01/09 11:26:16;;;;;;;15.18;2.95;;;;;;;;;;5011264;28;20168;-68
2022/01/09 11:28:43;;;;;;;13.90;3.17;;;;;;;;;;4992250;28;20057;-68
2022/01/09 11:31:32;;;;;;;14.38;3.38;;;;;;;;;;5010909;28;20558;-67
2022/01/09 11:34:11;;;;;;;22.33;3.75;;;;;;;;;;5004190;28;20475;-69
2022/01/09 11:36:36;;;;;;;20.33;3.78;;;;;;;;;;5011371;28;20440;-68
2022/01/09 11:39:12;;;;;;;23.63;3.72;;;;;;;;;;5011392;28;20065;-68
2022/01/09 11:41:38;;;;;;;23.90;3.72;;;;;;;;;;5011389;28;20041;-69
2022/01/09 11:44:06;;;;;;;24.05;4.47;;;;;;;;;;5012035;28;20088;-68
2022/01/09 11:46:52;;;;;;;10.35;2.80;;;;;;;;;;5011531;28;20088;-68
2022/01/09 11:49:20;;;;;;;16.98;2.90;;;;;;;;;;4999565;28;20037;-67
2022/01/09 11:51:57;;;;;;;22.67;4.03;;;;;;;;;;5009896;28;20030;-68
2022/01/09 11:54:24;;;;;;;18.70;4.47;;;;;;;;;;5011496;28;20057;-68
2022/01/09 11:56:53;;;;;;;16.00;3.28;;;;;;;;;;5011502;28;20053;-68
2022/01/09 11:59:42;;;;;;;19.95;3.88;;;;;;;;;;5010962;28;20076;-68
2022/01/09 12:02:18;;;;;;;17.83;3.33;;;;;;;;;;5011315;28;20104;-68
2022/01/09 12:04:45;;;;;;;19.58;3.42;;;;;;;;;;5011559;28;20026;-69
2022/01/09 12:07:12;;;;;;;18.58;4.10;;;;;;;;;;5011378;28;20329;-67
2022/01/09 12:09:41;;;;;;;25.02;4.88;;;;;;;;;;5010899;28;20026;-68
2022/01/09 12:12:11;;;;;;;24.52;3.97;;;;;;;;;;5010916;28;20392;-68
2022/01/09 12:17:27;;;;;;;23.02;4.75;;;;;;;;;;5011064;28;20033;-68
2022/01/09 12:20:12;;;;;;;13.90;2.65;;;;;;;;;;5010172;28;20026;-68
2022/01/09 12:22:53;;;;;;;13.93;2.58;;;;;;;;;;5010482;28;20072;-67
2022/01/09 12:25:25;;;;;;;14.97;3.73;;;;;;;;;;5010509;28;20030;-67
2022/01/09 12:27:56;;;;;;;21.50;4.22;;;;;;;;;;5003233;28;20299;-67
2022/01/09 12:33:34;;;;;;;12.35;3.70;;;;;;;;;;4997137;28;20494;-68
2022/01/09 12:36:00;;;;;;;10.35;2.65;;;;;;;;;;5010265;28;20113;-67
2022/01/09 12:38:30;;;;;;;14.60;3.28;;;;;;;;;;5010230;28;20493;-67
2022/01/09 12:41:04;;;;;;;17.60;5.75;;;;;;;;;;5010662;28;20030;-67
2022/01/09 12:43:31;;;;;;;13.35;3.17;;;;;;;;;;5009376;28;20024;-67
2022/01/09 12:45:57;;;;;;;15.27;3.45;;;;;;;;;;5010214;28;20507;-68
2022/01/09 12:48:25;;;;;;;14.35;2.92;;;;;;;;;;5008356;28;20038;-68
2022/01/09 12:50:51;;;;;;;16.77;3.10;;;;;;;;;;5008982;28;20030;-68
2022/01/09 12:53:17;;;;;;;15.68;3.65;;;;;;;;;;5009323;28;20053;-68
2022/01/09 12:55:52;;;;;;;19.63;3.10;;;;;;;;;;5010478;28;20045;-68
2022/01/09 12:58:29;;;;;;;22.95;2.88;;;;;;;;;;5008149;28;20475;-69
2022/01/09 13:00:56;;;;;;;22.40;3.35;;;;;;;;;;5009341;28;20049;-68
2022/01/09 13:03:22;;;;;;;20.60;3.80;;;;;;;;;;5007537;28;20026;-68
2022/01/09 13:05:58;;;;;;;25.10;3.83;;;;;;;;;;5007793;28;20062;-69
2022/01/09 13:08:24;;;;;;;21.98;3.28;;;;;;;;;;4981284;28;20044;-69
2022/01/09 13:10:56;;;;;;;27.00;3.50;;;;;;;;;;5001768;28;20507;-68
2022/01/09 13:13:23;;;;;;;18.40;3.50;;;;;;;;;;5007643;28;20083;-68
2022/01/09 13:15:49;;;;;;;15.60;2.88;;;;;;;;;;5004591;28;20038;-69
2022/01/09 13:18:15;;;;;;;23.23;3.65;;;;;;;;;;4981736;28;20446;-69
2022/01/09 13:20:41;;;;;;;21.20;3.28;;;;;;;;;;5007822;28;20073;-69
2022/01/09 13:23:09;;;;;;;26.75;4.35;;;;;;;;;;4988097;28;20027;-69
2022/01/09 13:25:45;;;;;;;20.20;3.40;;;;;;;;;;5008465;28;20180;-68
2022/01/09 13:28:21;;;;;;;15.00;3.30;;;;;;;;;;5006196;28;20395;-68
2022/01/09 13:30:47;;;;;;;20.25;4.10;;;;;;;;;;5007925;28;20029;-69
2022/01/09 13:33:14;;;;;;;21.65;3.85;;;;;;;;;;5008914;28;20034;-68
2022/01/09 13:35:40;;;;;;;22.50;3.05;;;;;;;;;;4988097;28;20053;-68
2022/01/09 13:38:06;;;;;;;25.00;4.28;;;;;;;;;;5007545;28;20030;-68
2022/01/09 13:40:32;;;;;;;15.90;2.80;;;;;;;;;;5007157;28;20042;-68
2022/01/09 13:43:00;;;;;;;20.50;3.83;;;;;;;;;;5007152;28;20021;-68
2022/01/09 13:45:26;;;;;;;17.42;3.50;;;;;;;;;;5006012;28;20029;-68
2022/01/09 13:47:54;;;;;;;19.23;3.10;;;;;;;;;;5004422;28;20055;-69
2022/01/09 13:50:21;;;;;;;19.48;2.95;;;;;;;;;;5004741;28;20033;-68
2022/01/09 13:52:48;;;;;;;23.30;3.45;;;;;;;;;;5006403;28;20061;-68
2022/01/09 13:55:16;;;;;;;21.40;3.40;;;;;;;;;;5006294;28;20109;-68
2022/01/09 13:57:48;;;;;;;17.38;4.18;;;;;;;;;;5007686;28;20111;-68
2022/01/09 14:00:14;;;;;;;25.05;3.28;;;;;;;;;;5001479;28;20057;-68
2022/01/09 14:02:41;;;;;;;18.50;3.55;;;;;;;;;;5004046;28;20022;-68
2022/01/09 14:05:20;;;;;;;17.63;3.45;;;;;;;;;;5005706;28;20033;-68
2022/01/09 14:07:49;;;;;;;19.25;3.15;;;;;;;;;;5005485;28;20090;-68
2022/01/09 14:10:15;;;;;;;26.10;4.95;;;;;;;;;;5006992;28;20034;-68
2022/01/09 14:12:42;;;;;;;21.67;3.60;;;;;;;;;;5007388;28;20404;-68
2022/01/09 14:15:15;;;;;;;19.58;3.38;;;;;;;;;;4978223;28;20089;-67
2022/01/09 14:17:46;;;;;;;23.42;3.97;;;;;;;;;;4982621;28;20415;-68
2022/01/09 14:20:18;;;;;;;29.55;4.57;;;;;;;;;;5008195;28;20030;-68
2022/01/09 14:22:48;;;;;;;29.70;5.88;;;;;;;;;;4984194;28;20117;-67
2022/01/09 14:25:17;;;;;;;29.30;5.40;;;;;;;;;;5006738;28;20026;-67
2022/01/09 14:27:45;;;;;;;23.05;3.30;;;;;;;;;;5008267;28;20021;-68
2022/01/09 14:30:23;;;;;;;22.73;3.60;;;;;;;;;;5011310;28;20096;-68
2022/01/09 14:32:51;;;;;;;18.42;3.90;;;;;;;;;;5010796;28;20514;-68
2022/01/09 14:35:27;;;;;;;24.58;3.67;;;;;;;;;;5011593;28;20100;-67
2022/01/09 14:37:58;;;;;;;15.98;3.35;;;;;;;;;;5011715;28;20451;-67
2022/01/09 14:40:23;;;;;;;18.73;3.88;;;;;;;;;;5011495;28;20521;-68
2022/01/09 14:42:49;;;;;;;19.08;3.17;;;;;;;;;;5012140;28;20117;-68